Time;durP1;ratioP1;P1;durP2;ratioP2;P2;SDS_P1;SDS_P2;PMS_P1;PMS_P2;Temp;Humidity;BMP_temperature;BMP_pressure;BME280_temperature;BME280_humidity;BME280_pressure;Samples;Min_cycle;Max_cycle;Signal;HPM_P1;HPM_P2
2022/11/06 00:00:33;;;;;;;3.60;1.20;;;13.90;99.90;;;;;;4881457;29;20076;-59
2022/11/06 00:03:00;;;;;;;1.92;1.30;;;13.90;99.90;;;;;;4897560;29;20128;-59
2022/11/06 00:08:13;;;;;;;4.22;1.70;;;13.90;99.90;;;;;;4900797;29;20041;-59
2022/11/06 00:10:40;;;;;;;4.47;1.60;;;13.90;99.90;;;;;;4900837;29;20045;-59
2022/11/06 00:13:07;;;;;;;3.60;1.60;;;13.90;99.90;;;;;;4884605;29;20480;-59
2022/11/06 00:15:34;;;;;;;4.22;1.50;;;13.90;99.90;;;;;;4884546;29;20489;-59
2022/11/06 00:18:01;;;;;;;3.15;1.30;;;13.90;99.90;;;;;;4901624;29;20469;-59
2022/11/06 00:20:27;;;;;;;4.05;1.50;;;13.90;99.90;;;;;;4901193;29;20086;-59
2022/11/06 00:22:54;;;;;;;5.65;1.80;;;13.90;99.90;;;;;;4884328;29;20404;-59
2022/11/06 00:25:21;;;;;;;3.85;2.08;;;13.90;99.90;;;;;;4884719;29;20060;-59
2022/11/06 00:27:48;;;;;;;4.53;1.80;;;13.90;99.90;;;;;;4883990;29;20045;-59
2022/11/06 00:30:15;;;;;;;2.75;1.35;;;13.90;99.90;;;;;;4900681;29;20044;-59
2022/11/06 00:32:42;;;;;;;5.60;1.63;;;13.90;99.90;;;;;;4884920;29;20112;-59
2022/11/06 00:35:09;;;;;;;3.78;1.52;;;13.90;99.90;;;;;;4901106;29;20124;-59
2022/11/06 00:37:36;;;;;;;4.28;1.50;;;13.90;99.90;;;;;;4901219;29;20045;-59
2022/11/06 00:40:03;;;;;;;6.30;1.33;;;14.00;99.90;;;;;;4900887;29;20060;-59
2022/11/06 00:42:30;;;;;;;2.80;1.30;;;13.90;99.90;;;;;;4868631;29;20438;-59
2022/11/06 00:44:57;;;;;;;3.85;1.40;;;13.90;99.90;;;;;;4884085;29;20044;-59
2022/11/06 00:47:24;;;;;;;3.03;1.20;;;14.00;99.90;;;;;;4884072;29;20045;-59
2022/11/06 00:49:51;;;;;;;3.20;1.50;;;14.00;99.90;;;;;;4900402;29;20100;-59
2022/11/06 00:52:18;;;;;;;4.30;1.42;;;14.00;99.90;;;;;;4900412;29;20127;-59
2022/11/06 00:54:44;;;;;;;3.72;1.45;;;13.90;99.90;;;;;;4883705;29;20096;-59
2022/11/06 00:57:11;;;;;;;4.57;1.65;;;13.90;99.90;;;;;;4900088;29;20481;-59
2022/11/06 00:59:38;;;;;;;4.80;2.25;;;13.90;99.90;;;;;;4900241;29;20488;-59
2022/11/06 01:02:05;;;;;;;4.60;1.55;;;13.90;99.90;;;;;;4900668;29;20045;-59
2022/11/06 01:04:32;;;;;;;4.88;2.05;;;13.90;99.90;;;;;;4883255;29;20040;-59
2022/11/06 01:06:59;;;;;;;4.43;1.60;;;13.90;99.90;;;;;;4899897;29;20096;-59
2022/11/06 01:09:27;;;;;;;3.22;1.52;;;13.90;99.90;;;;;;4899895;29;20473;-59
2022/11/06 01:11:56;;;;;;;9.13;2.78;;;13.90;99.90;;;;;;4899809;29;20374;-59
2022/11/06 01:14:40;;;;;;;4.57;1.73;;;13.90;99.90;;;;;;4900389;29;20052;-59
2022/11/06 01:17:07;;;;;;;4.50;2.58;;;13.90;99.90;;;;;;4900009;29;20040;-59
2022/11/06 01:19:34;;;;;;;5.28;1.73;;;13.90;99.90;;;;;;4899377;29;20068;-59
2022/11/06 01:22:01;;;;;;;4.90;2.58;;;13.90;99.90;;;;;;4900385;29;20048;-59
2022/11/06 01:24:28;;;;;;;4.38;2.83;;;14.00;99.90;;;;;;4883149;29;20049;-59
2022/11/06 01:26:55;;;;;;;5.65;1.90;;;14.00;99.90;;;;;;4900055;29;20140;-59
2022/11/06 01:29:43;;;;;;;5.70;2.65;;;14.00;99.90;;;;;;4885488;29;20091;-59
2022/11/06 01:32:10;;;;;;;7.15;2.58;;;14.00;99.90;;;;;;4867826;29;20049;-59
2022/11/06 01:34:37;;;;;;;3.90;1.90;;;14.00;99.90;;;;;;4868020;29;20430;-59
2022/11/06 01:37:04;;;;;;;5.45;2.15;;;14.00;99.90;;;;;;4882988;29;20040;-59
2022/11/06 01:39:31;;;;;;;4.63;2.90;;;14.00;99.90;;;;;;4899387;29;20557;-59
2022/11/06 01:41:57;;;;;;;4.97;2.42;;;14.00;99.90;;;;;;4883197;29;20430;-59
2022/11/06 01:44:39;;;;;;;5.30;2.33;;;14.00;99.90;;;;;;4899256;29;20045;-59
2022/11/06 01:47:24;;;;;;;4.07;2.13;;;14.10;99.90;;;;;;4900070;29;20044;-59
2022/11/06 01:49:53;;;;;;;4.60;2.50;;;14.10;99.90;;;;;;4899963;29;20053;-59
2022/11/06 01:52:20;;;;;;;10.25;3.03;;;14.10;99.90;;;;;;4882475;29;20066;-59
2022/11/06 01:54:49;;;;;;;3.88;2.55;;;14.10;99.90;;;;;;4882389;29;20195;-68
2022/11/06 01:57:16;;;;;;;14.02;10.27;;;14.10;99.90;;;;;;4867395;29;20477;-63
2022/11/06 01:59:44;;;;;;;12.77;8.10;;;14.10;99.90;;;;;;4882797;29;20071;-62
2022/11/06 02:02:11;;;;;;;6.28;2.33;;;14.10;99.90;;;;;;4898876;29;20236;-62
2022/11/06 02:04:41;;;;;;;3.88;1.98;;;14.10;99.90;;;;;;4882113;29;20044;-62
2022/11/06 02:07:08;;;;;;;4.18;1.95;;;14.10;99.90;;;;;;4866964;29;20508;-62
2022/11/06 02:09:35;;;;;;;4.25;1.60;;;14.10;99.90;;;;;;4898568;29;20064;-62
2022/11/06 02:12:09;;;;;;;2.55;1.30;;;14.10;99.90;;;;;;4898649;29;20489;-62
2022/11/06 02:15:00;;;;;;;3.15;1.52;;;14.10;99.90;;;;;;4882521;29;20049;-62
2022/11/06 02:17:42;;;;;;;2.50;1.50;;;14.00;99.90;;;;;;4869219;29;20481;-62
2022/11/06 02:20:31;;;;;;;4.35;1.42;;;14.10;99.90;;;;;;4899504;29;20085;-62
2022/11/06 02:23:18;;;;;;;3.47;1.25;;;14.10;99.90;;;;;;4898568;29;20092;-62
2022/11/06 02:26:06;;;;;;;5.85;1.60;;;14.10;99.90;;;;;;4851399;29;20048;-62
2022/11/06 02:28:35;;;;;;;10.65;3.25;;;14.10;99.90;;;;;;4884737;29;20048;-62
2022/11/06 02:31:06;;;;;;;4.20;1.70;;;14.10;99.90;;;;;;4867334;29;20058;-62
2022/11/06 02:33:35;;;;;;;5.88;1.95;;;14.10;99.90;;;;;;4883224;29;20052;-62
2022/11/06 02:36:06;;;;;;;6.75;2.08;;;14.10;99.90;;;;;;4866508;29;20076;-62
2022/11/06 02:38:42;;;;;;;7.55;2.13;;;14.10;99.90;;;;;;4866951;29;20389;-62
2022/11/06 02:41:11;;;;;;;5.10;2.10;;;14.10;99.90;;;;;;4867006;29;20187;-62
2022/11/06 02:43:40;;;;;;;5.93;2.20;;;14.10;99.90;;;;;;4866301;29;20108;-62
2022/11/06 02:46:25;;;;;;;5.07;2.22;;;14.10;99.90;;;;;;4866475;29;20045;-62
2022/11/06 02:48:56;;;;;;;9.30;2.88;;;14.10;99.90;;;;;;4867265;29;20049;-62
2022/11/06 02:51:25;;;;;;;6.20;1.80;;;14.10;99.90;;;;;;4866538;29;20056;-62
2022/11/06 02:53:52;;;;;;;4.22;1.60;;;14.10;99.90;;;;;;4866472;29;20044;-62
2022/11/06 02:56:21;;;;;;;2.70;1.40;;;14.10;99.90;;;;;;4866415;29;20469;-62
2022/11/06 02:58:48;;;;;;;;;;;14.10;99.90;;;;;;4881660;29;20076;-62
2022/11/06 03:01:22;;;;;;;4.40;1.80;;;14.10;99.90;;;;;;4881897;29;19991;-62
2022/11/06 03:03:52;;;;;;;6.85;1.90;;;14.10;99.90;;;;;;4882619;29;20072;-62
2022/11/06 03:06:44;;;;;;;7.43;1.92;;;14.10;99.90;;;;;;4881374;29;20040;-62
2022/11/06 03:09:13;;;;;;;5.63;2.08;;;14.10;99.90;;;;;;4881233;29;20048;-62
2022/11/06 03:11:40;;;;;;;2.95;1.40;;;14.10;99.90;;;;;;4881220;29;20108;-62
2022/11/06 03:14:31;;;;;;;4.45;2.10;;;14.10;99.90;;;;;;4897713;29;20120;-62
2022/11/06 03:17:18;;;;;;;3.90;1.60;;;14.10;99.90;;;;;;4840003;29;20040;-62
2022/11/06 03:19:55;;;;;;;5.95;2.00;;;14.10;99.90;;;;;;4868838;29;20045;-62
2022/11/06 03:22:44;;;;;;;6.72;1.80;;;14.10;99.90;;;;;;4881881;29;20446;-62
2022/11/06 03:25:34;;;;;;;6.85;2.10;;;14.10;99.90;;;;;;4898741;29;20057;-62
2022/11/06 03:28:03;;;;;;;5.95;2.78;;;14.10;99.90;;;;;;4868121;29;20053;-62
2022/11/06 03:30:32;;;;;;;5.72;1.90;;;14.10;99.90;;;;;;4881586;29;20076;-62
2022/11/06 03:33:38;;;;;;;4.75;1.60;;;14.10;99.90;;;;;;4881951;29;20456;-62
2022/11/06 03:36:17;;;;;;;8.48;2.28;;;14.10;99.90;;;;;;4885257;29;20056;-62
2022/11/06 03:38:49;;;;;;;6.75;2.00;;;14.10;99.90;;;;;;4897729;29;20052;-62
2022/11/06 03:41:27;;;;;;;3.45;1.73;;;14.10;99.90;;;;;;4881781;29;20104;-62
2022/11/06 03:43:54;;;;;;;5.82;1.80;;;14.10;99.90;;;;;;4855784;29;20096;-62
2022/11/06 03:46:23;;;;;;;6.88;1.40;;;14.10;99.90;;;;;;4870156;29;20052;-62
2022/11/06 03:49:20;;;;;;;;;;;14.10;99.90;;;;;;4886095;29;20474;-62
2022/11/06 03:51:51;;;;;;;4.40;1.67;;;14.10;99.90;;;;;;4885257;29;19923;-62
2022/11/06 03:54:48;;;;;;;5.20;1.90;;;14.00;99.90;;;;;;4854772;29;20056;-62
2022/11/06 03:57:37;;;;;;;4.45;1.80;;;14.00;99.90;;;;;;4900045;29;20048;-62
2022/11/06 04:00:05;;;;;;;2.53;1.40;;;14.00;99.90;;;;;;4824986;29;20045;-62
2022/11/06 04:02:32;;;;;;;4.85;1.15;;;14.00;99.90;;;;;;4901270;29;20096;-62
2022/11/06 04:05:01;;;;;;;5.20;1.30;;;13.90;99.90;;;;;;4868980;29;20045;-61
2022/11/06 04:07:33;;;;;;;2.00;1.02;;;13.90;99.90;;;;;;4869174;29;20053;-61
2022/11/06 04:15:38;;;;;;;2.05;1.20;;;13.90;99.90;;;;;;4873765;29;20054;-61
2022/11/06 04:18:16;;;;;;;3.30;1.65;;;13.90;99.90;;;;;;4885351;29;20044;-62
2022/11/06 04:26:34;;;;;;;4.90;1.75;;;13.90;99.90;;;;;;4874388;29;20080;-62
2022/11/06 04:26:35;;;;;;;2.65;1.27;;;13.90;99.90;;;;;;4886629;29;20099;-62
2022/11/06 04:29:15;;;;;;;3.80;1.48;;;13.90;99.90;;;;;;4853517;29;20080;-65
2022/11/06 04:31:45;;;;;;;1.05;0.90;;;13.80;99.90;;;;;;4885659;29;20471;-64
2022/11/06 04:34:29;;;;;;;59.75;44.42;;;13.90;99.90;;;;;;4883862;29;20525;-63
2022/11/06 04:37:07;;;;;;;19.35;17.52;;;13.90;99.90;;;;;;4884586;29;20094;-61
2022/11/06 04:39:55;;;;;;;3.50;2.40;;;13.90;99.90;;;;;;4868743;29;20060;-63
2022/11/06 04:42:41;;;;;;;3.15;1.00;;;13.90;99.90;;;;;;4869013;29;20541;-62
2022/11/06 04:45:12;;;;;;;3.22;1.63;;;13.90;99.90;;;;;;4901269;29;20045;-62
2022/11/06 04:47:38;;;;;;;2.95;1.00;;;13.90;99.90;;;;;;4899138;29;20492;-62
2022/11/06 04:50:06;;;;;;;1.90;1.48;;;13.90;99.90;;;;;;4883852;29;20104;-62
2022/11/06 04:52:32;;;;;;;2.63;1.25;;;13.90;99.90;;;;;;4883783;29;20052;-62
2022/11/06 04:54:59;;;;;;;2.50;1.20;;;13.90;99.90;;;;;;4883502;29;20087;-62
2022/11/06 04:57:26;;;;;;;3.72;1.23;;;14.00;99.90;;;;;;4900193;29;20165;-62
2022/11/06 04:59:55;;;;;;;4.40;1.42;;;14.00;99.90;;;;;;4883796;29;20053;-62
2022/11/06 05:02:22;;;;;;;5.20;2.15;;;14.00;99.90;;;;;;4900741;29;20064;-62
2022/11/06 05:04:49;;;;;;;6.72;2.10;;;14.00;99.90;;;;;;4900349;29;20076;-62
2022/11/06 05:07:16;;;;;;;10.90;3.08;;;14.00;99.90;;;;;;4900228;29;20075;-63
2022/11/06 05:09:44;;;;;;;8.77;2.95;;;14.00;99.90;;;;;;4900638;29;20044;-62
2022/11/06 05:12:11;;;;;;;12.52;2.85;;;14.00;99.90;;;;;;4883523;29;20045;-62
2022/11/06 05:14:38;;;;;;;7.20;3.15;;;14.00;99.90;;;;;;4883428;29;20093;-62
2022/11/06 05:17:05;;;;;;;7.03;2.50;;;14.00;99.90;;;;;;4868472;29;20092;-62
2022/11/06 05:19:32;;;;;;;10.32;3.17;;;14.00;99.90;;;;;;4900499;29;20100;-62
2022/11/06 05:24:44;;;;;;;7.13;2.13;;;14.00;99.90;;;;;;4900760;29;20056;-62
2022/11/06 05:27:11;;;;;;;6.20;2.15;;;14.00;99.90;;;;;;4900743;29;20120;-62
2022/11/06 05:29:38;;;;;;;7.72;2.33;;;14.00;99.90;;;;;;4899860;29;20045;-62
2022/11/06 05:32:05;;;;;;;7.13;1.90;;;14.00;99.90;;;;;;4900395;29;20114;-62
2022/11/06 05:34:32;;;;;;;4.90;1.80;;;14.00;99.90;;;;;;4899795;29;20057;-62
2022/11/06 05:36:59;;;;;;;5.60;1.92;;;14.00;99.90;;;;;;4883283;29;20104;-62
2022/11/06 05:39:25;;;;;;;4.45;1.60;;;14.00;99.90;;;;;;4899479;29;20076;-62
2022/11/06 05:41:52;;;;;;;3.25;1.40;;;13.90;99.90;;;;;;4899389;29;20105;-62
2022/11/06 05:44:19;;;;;;;4.85;2.22;;;13.90;99.90;;;;;;4882644;29;20080;-62
2022/11/06 05:46:46;;;;;;;6.28;1.50;;;13.90;99.90;;;;;;4899670;29;20044;-62
2022/11/06 05:49:16;;;;;;;4.70;1.45;;;13.90;99.90;;;;;;4900599;29;20056;-62
2022/11/06 05:51:43;;;;;;;4.65;1.70;;;13.90;99.90;;;;;;4899360;29;20076;-62
2022/11/06 05:54:10;;;;;;;2.85;1.27;;;13.90;99.90;;;;;;4882877;29;20366;-62
2022/11/06 05:56:37;;;;;;;6.70;1.45;;;13.80;99.90;;;;;;4882798;29;20382;-62
2022/11/06 05:59:04;;;;;;;5.47;1.80;;;13.80;99.90;;;;;;4899133;29;20080;-62
2022/11/06 06:01:30;;;;;;;5.18;1.67;;;13.80;99.90;;;;;;4899008;29;20044;-62
2022/11/06 06:03:57;;;;;;;4.35;1.50;;;13.80;99.90;;;;;;4882303;29;20044;-62
2022/11/06 06:06:24;;;;;;;3.97;1.45;;;13.80;99.90;;;;;;4882026;29;20052;-63
2022/11/06 06:08:51;;;;;;;3.95;1.52;;;13.80;99.90;;;;;;4898865;29;20059;-63
2022/11/06 06:11:18;;;;;;;6.38;1.75;;;13.90;99.90;;;;;;4898708;29;20055;-62
2022/11/06 06:13:45;;;;;;;6.13;1.92;;;13.90;99.90;;;;;;4899481;29;20128;-63
2022/11/06 06:16:12;;;;;;;5.82;2.70;;;13.90;99.90;;;;;;4898762;29;20112;-63
2022/11/06 06:18:39;;;;;;;6.90;3.15;;;13.90;99.90;;;;;;4867168;29;20429;-62
2022/11/06 06:21:06;;;;;;;4.30;2.92;;;13.90;99.90;;;;;;4882079;29;20045;-62
2022/11/06 06:23:33;;;;;;;6.50;3.00;;;13.90;99.90;;;;;;4899099;29;20120;-62
2022/11/06 06:25:59;;;;;;;5.88;2.25;;;13.90;99.90;;;;;;4898695;29;20044;-62
2022/11/06 06:28:26;;;;;;;6.53;2.85;;;13.90;99.90;;;;;;4898839;29;20052;-62
2022/11/06 06:30:53;;;;;;;6.38;3.35;;;13.90;99.90;;;;;;4898412;29;20044;-62
2022/11/06 06:33:27;;;;;;;7.78;3.15;;;13.90;99.90;;;;;;4882768;29;20041;-62
2022/11/06 06:35:53;;;;;;;4.97;2.47;;;13.90;99.90;;;;;;4882091;29;20064;-62
2022/11/06 06:38:20;;;;;;;6.53;2.25;;;13.90;99.90;;;;;;4898437;29;20049;-62
2022/11/06 06:40:47;;;;;;;2.92;1.67;;;14.00;99.90;;;;;;4898292;29;20055;-63
2022/11/06 06:43:14;;;;;;;6.85;1.98;;;13.90;99.90;;;;;;4881716;29;20077;-62
2022/11/06 06:45:41;;;;;;;5.35;2.13;;;14.00;99.90;;;;;;4898230;29;20052;-62
2022/11/06 06:48:08;;;;;;;5.20;2.20;;;14.00;99.90;;;;;;4882323;29;20525;-62
2022/11/06 06:50:35;;;;;;;6.55;1.58;;;14.00;99.90;;;;;;4898573;29;20048;-62
2022/11/06 06:53:02;;;;;;;12.43;2.92;;;14.00;99.90;;;;;;4866402;29;20139;-62
2022/11/06 06:55:29;;;;;;;14.05;2.85;;;14.00;99.90;;;;;;4898071;29;20125;-62
2022/11/06 06:57:59;;;;;;;8.48;2.78;;;14.00;99.90;;;;;;4882521;29;20080;-62
2022/11/06 07:00:26;;;;;;;8.50;2.88;;;14.00;99.90;;;;;;4881757;29;20049;-62
2022/11/06 07:02:53;;;;;;;11.27;2.78;;;14.00;99.90;;;;;;4899187;29;20048;-62
2022/11/06 07:05:20;;;;;;;12.93;3.33;;;14.00;99.90;;;;;;4882332;29;20048;-62
2022/11/06 07:07:47;;;;;;;9.90;2.78;;;14.00;99.90;;;;;;4866172;29;20050;-63
2022/11/06 07:10:14;;;;;;;10.48;3.15;;;14.00;99.90;;;;;;4898592;29;20057;-62
2022/11/06 07:12:41;;;;;;;8.30;2.90;;;14.00;99.90;;;;;;4898964;29;20048;-62
2022/11/06 07:15:08;;;;;;;9.57;3.65;;;14.00;99.90;;;;;;4898146;29;20056;-63
2022/11/06 07:17:35;;;;;;;9.13;3.33;;;14.00;99.90;;;;;;4897752;29;20049;-63
2022/11/06 07:20:03;;;;;;;9.38;2.97;;;14.00;99.90;;;;;;4898336;29;20381;-62
2022/11/06 07:22:30;;;;;;;10.05;2.67;;;14.00;99.90;;;;;;4866962;29;20103;-63
2022/11/06 07:25:04;;;;;;;13.10;3.05;;;14.00;99.90;;;;;;4898449;29;20389;-62
2022/11/06 07:27:31;;;;;;;10.05;2.75;;;14.00;99.90;;;;;;4897634;29;20104;-62
2022/11/06 07:29:59;;;;;;;10.27;3.25;;;14.00;99.90;;;;;;4898582;29;20086;-62
2022/11/06 07:32:26;;;;;;;12.70;3.92;;;14.00;99.90;;;;;;4898450;29;20053;-63
2022/11/06 07:34:53;;;;;;;9.68;3.55;;;14.00;99.90;;;;;;4897521;29;20433;-62
2022/11/06 07:37:20;;;;;;;12.50;3.38;;;14.00;99.90;;;;;;4866702;29;20049;-62
2022/11/06 07:39:47;;;;;;;13.45;4.57;;;14.10;99.90;;;;;;4865947;29;20080;-60
2022/11/06 07:42:14;;;;;;;19.10;12.55;;;14.10;99.90;;;;;;4897857;29;20100;-64
2022/11/06 07:44:41;;;;;;;15.05;3.55;;;14.10;99.90;;;;;;4897760;29;20052;-62
2022/11/06 07:47:08;;;;;;;12.93;3.13;;;14.20;99.90;;;;;;4881152;29;20040;-62
2022/11/06 07:49:35;;;;;;;9.68;3.50;;;14.20;99.90;;;;;;4881679;29;20048;-62
2022/11/06 07:52:03;;;;;;;9.77;3.35;;;14.20;99.90;;;;;;4898476;29;20425;-62
2022/11/06 07:54:29;;;;;;;11.10;3.17;;;14.20;99.90;;;;;;4881024;29;20159;-62
2022/11/06 07:56:56;;;;;;;9.30;2.75;;;14.20;99.90;;;;;;4897650;29;20503;-62
2022/11/06 07:59:23;;;;;;;13.77;3.30;;;14.20;99.90;;;;;;4897492;29;20492;-62
2022/11/06 08:01:50;;;;;;;18.48;3.75;;;14.20;99.90;;;;;;4880824;29;20051;-62
2022/11/06 08:04:17;;;;;;;12.68;2.88;;;14.20;99.90;;;;;;4897779;29;20058;-62
2022/11/06 08:06:44;;;;;;;6.97;2.90;;;14.20;99.90;;;;;;4898027;29;20101;-62
2022/11/06 08:09:11;;;;;;;11.07;2.85;;;14.20;99.90;;;;;;4881932;29;20053;-63
2022/11/06 08:11:38;;;;;;;11.45;3.50;;;14.10;99.90;;;;;;4897352;29;20045;-62
2022/11/06 08:14:05;;;;;;;9.02;3.75;;;14.10;99.90;;;;;;4865461;29;20052;-63
2022/11/06 08:16:32;;;;;;;11.70;4.30;;;14.10;99.90;;;;;;4865559;29;20112;-62
2022/11/06 08:18:59;;;;;;;11.45;4.50;;;14.10;99.90;;;;;;4897890;29;20373;-62
2022/11/06 08:21:26;;;;;;;10.75;4.25;;;14.10;99.90;;;;;;4897170;29;20131;-62
2022/11/06 08:23:53;;;;;;;8.55;3.90;;;14.10;99.90;;;;;;4881677;29;20061;-61
2022/11/06 08:26:19;;;;;;;8.77;4.18;;;14.10;99.90;;;;;;4897257;29;20044;-62
2022/11/06 08:28:46;;;;;;;11.63;4.75;;;14.10;99.90;;;;;;4899137;29;20044;-61
2022/11/06 08:31:13;;;;;;;63.28;48.42;;;14.10;99.90;;;;;;4900596;29;20060;-60
2022/11/06 08:33:40;;;;;;;10.55;5.57;;;14.10;99.90;;;;;;4884272;29;20104;-62
2022/11/06 08:36:07;;;;;;;9.75;5.13;;;14.00;99.90;;;;;;4883791;29;20049;-61
2022/11/06 08:38:35;;;;;;;7.78;3.47;;;14.00;99.90;;;;;;4884087;29;20045;-61
2022/11/06 08:41:06;;;;;;;9.80;4.88;;;14.00;99.90;;;;;;4884261;29;20115;-61
2022/11/06 08:43:33;;;;;;;9.43;4.75;;;14.00;99.90;;;;;;4884506;29;20049;-62
2022/11/06 08:46:00;;;;;;;8.20;4.00;;;14.00;99.90;;;;;;4853325;29;20426;-62
2022/11/06 08:48:27;;;;;;;10.02;3.45;;;14.00;99.90;;;;;;4884222;29;20048;-62
2022/11/06 08:50:54;;;;;;;10.27;2.80;;;14.00;99.90;;;;;;4900434;29;20045;-62
2022/11/06 08:53:21;;;;;;;32.63;22.88;;;14.00;99.90;;;;;;4884326;29;20044;-67
2022/11/06 08:55:48;;;;;;;253.18;212.02;;;14.00;99.90;;;;;;4883479;29;20053;-64
2022/11/06 08:58:14;;;;;;;19.73;13.98;;;14.00;99.90;;;;;;4883256;29;20084;-63
2022/11/06 09:00:41;;;;;;;11.50;6.40;;;14.00;99.90;;;;;;4900037;29;20045;-63
2022/11/06 09:03:10;;;;;;;7.07;3.38;;;14.00;99.90;;;;;;4883398;29;20040;-63
2022/11/06 09:05:40;;;;;;;5.88;3.22;;;14.00;99.90;;;;;;4883741;29;20087;-63
2022/11/06 09:08:07;;;;;;;5.93;2.83;;;14.00;99.90;;;;;;4900241;29;20048;-63
2022/11/06 09:10:34;;;;;;;6.50;2.42;;;14.00;99.90;;;;;;4883018;29;20052;-63
2022/11/06 09:13:01;;;;;;;8.13;2.17;;;14.00;99.90;;;;;;4883315;29;20096;-59
2022/11/06 09:15:28;;;;;;;7.00;2.03;;;14.00;99.90;;;;;;4882846;29;20057;-58
2022/11/06 09:17:55;;;;;;;57.63;51.63;;;14.00;99.90;;;;;;4899706;29;20497;-60
2022/11/06 09:20:23;;;;;;;6.18;3.42;;;14.00;99.90;;;;;;4900235;29;20084;-59
2022/11/06 09:22:50;;;;;;;5.55;2.60;;;14.00;99.90;;;;;;4900200;29;20044;-60
2022/11/06 09:25:17;;;;;;;2.30;1.27;;;14.00;99.90;;;;;;4883425;29;20200;-63
2022/11/06 09:27:45;;;;;;;6.45;1.77;;;14.00;99.90;;;;;;4900162;29;20396;-63
2022/11/06 09:30:13;;;;;;;3.65;1.10;;;14.00;99.90;;;;;;4899767;29;20107;-62
2022/11/06 09:32:48;;;;;;;2.55;1.10;;;14.00;99.90;;;;;;4883318;29;20057;-63
2022/11/06 09:35:15;;;;;;;3.85;1.38;;;14.00;99.90;;;;;;4883063;29;20092;-62
2022/11/06 09:37:42;;;;;;;4.35;1.98;;;14.00;99.90;;;;;;4900410;29;20044;-63
2022/11/06 09:40:23;;;;;;;6.97;3.30;;;13.90;99.90;;;;;;4882207;29;20053;-66
2022/11/06 09:43:14;;;;;;;5.97;3.70;;;14.00;99.90;;;;;;4883905;29;20049;-64
2022/11/06 09:45:42;;;;;;;7.53;4.10;;;14.00;99.90;;;;;;4899373;29;20045;-64
2022/11/06 09:48:19;;;;;;;6.10;4.15;;;13.90;99.90;;;;;;4883465;29;20104;-64
2022/11/06 09:50:51;;;;;;;6.55;3.13;;;13.90;99.90;;;;;;4900431;29;20041;-64
2022/11/06 09:53:22;;;;;;;4.70;1.90;;;14.00;99.90;;;;;;4882709;29;20103;-64
2022/11/06 09:55:49;;;;;;;6.00;2.72;;;14.00;99.90;;;;;;4900132;29;20449;-64
2022/11/06 09:58:22;;;;;;;4.63;1.60;;;14.00;99.90;;;;;;4882782;29;20123;-63
2022/11/06 10:00:52;;;;;;;82.95;69.63;;;14.00;99.90;;;;;;4898014;29;20091;-61
2022/11/06 10:03:31;;;;;;;18.00;10.98;;;14.00;99.90;;;;;;4882443;29;20449;-64
2022/11/06 10:05:58;;;;;;;7.00;4.45;;;14.00;99.90;;;;;;4882590;29;20044;-64
2022/11/06 10:08:26;;;;;;;5.63;2.20;;;14.00;99.90;;;;;;4882538;29;20100;-64
2022/11/06 10:11:09;;;;;;;4.95;2.33;;;14.00;99.90;;;;;;4866881;29;20048;-64
2022/11/06 10:14:13;;;;;;;4.00;1.95;;;14.00;99.90;;;;;;4899457;29;20044;-64
2022/11/06 10:16:58;;;;;;;4.45;1.73;;;14.00;99.90;;;;;;4899427;29;20085;-64
2022/11/06 10:19:38;;;;;;;5.97;2.25;;;13.90;99.90;;;;;;4898901;29;20045;-63
2022/11/06 10:22:15;;;;;;;11.23;8.75;;;13.90;99.90;;;;;;4882223;29;20096;-63
2022/11/06 10:25:06;;;;;;;3.33;1.90;;;13.80;99.90;;;;;;4883082;29;20048;-65
2022/11/06 10:27:39;;;;;;;2.75;1.00;;;13.70;99.90;;;;;;4882520;29;20056;-65
2022/11/06 10:30:10;;;;;;;3.33;0.80;;;13.60;99.90;;;;;;4899153;29;20433;-63
2022/11/06 10:32:52;;;;;;;3.05;1.10;;;13.60;99.90;;;;;;4898726;29;20441;-65
2022/11/06 10:35:28;;;;;;;2.83;1.00;;;13.60;99.90;;;;;;4898430;29;20485;-64
2022/11/06 10:38:19;;;;;;;2.15;1.23;;;13.50;99.90;;;;;;4899044;29;20461;-68
2022/11/06 10:40:50;;;;;;;4.47;1.40;;;13.50;99.90;;;;;;4885126;29;20052;-65
2022/11/06 10:43:32;;;;;;;2.30;1.40;;;13.50;99.90;;;;;;4882215;29;20077;-62
2022/11/06 10:46:10;;;;;;;5.78;2.50;;;13.50;99.90;;;;;;4882389;29;20044;-62
2022/11/06 10:48:39;;;;;;;6.10;2.60;;;13.50;99.90;;;;;;4882570;29;20060;-61
2022/11/06 10:51:14;;;;;;;5.80;2.40;;;13.50;99.90;;;;;;4881591;29;20041;-60
2022/11/06 10:53:57;;;;;;;2.95;1.80;;;13.50;99.90;;;;;;4881768;29;20049;-61
2022/11/06 10:56:32;;;;;;;5.55;2.30;;;13.50;99.90;;;;;;4882314;29;20143;-61
2022/11/06 10:58:59;;;;;;;4.07;1.90;;;13.50;99.90;;;;;;4881250;29;20049;-61
2022/11/06 11:01:26;;;;;;;2.83;2.08;;;13.40;99.90;;;;;;4881400;29;20100;-61
2022/11/06 11:03:53;;;;;;;3.60;1.40;;;13.40;99.90;;;;;;4866283;29;20187;-61
2022/11/06 11:06:20;;;;;;;4.63;1.70;;;13.40;99.90;;;;;;4897826;29;20422;-61
2022/11/06 11:08:49;;;;;;;1.95;1.10;;;13.30;99.90;;;;;;4881374;29;20067;-60
2022/11/06 11:11:19;;;;;;;9.90;3.88;;;13.30;99.90;;;;;;4881434;29;20098;-62
2022/11/06 11:13:56;;;;;;;2.83;1.80;;;13.60;99.90;;;;;;4897753;29;20113;-70
2022/11/06 11:16:25;;;;;;;45.33;38.72;;;13.70;99.90;;;;;;4864484;29;20054;-69
2022/11/06 11:18:52;;;;;;;7.28;4.50;;;13.60;99.90;;;;;;4878059;29;20500;-61
2022/11/06 11:21:22;;;;;;;4.43;2.03;;;13.50;99.90;;;;;;4847481;29;20052;-63
2022/11/06 11:24:10;;;;;;;1.90;1.02;;;13.40;99.90;;;;;;4863435;29;20053;-65
2022/11/06 11:26:43;;;;;;;4.85;1.38;;;13.30;99.90;;;;;;4879114;29;20466;-64
2022/11/06 11:29:15;;;;;;;4.38;1.67;;;13.40;99.90;;;;;;4863316;29;20378;-64
2022/11/06 11:31:45;;;;;;;6.80;2.25;;;13.40;99.90;;;;;;4832625;29;20069;-64
2022/11/06 11:34:31;;;;;;;10.00;2.58;;;13.40;99.90;;;;;;4847538;29;20584;-64
2022/11/06 11:37:05;;;;;;;11.18;2.80;;;13.40;99.90;;;;;;4847404;29;20045;-64
2022/11/06 11:39:42;;;;;;;5.13;2.00;;;13.50;99.90;;;;;;4878807;29;20056;-64
2022/11/06 11:42:27;;;;;;;9.38;2.47;;;13.50;99.90;;;;;;4832537;29;20072;-66
2022/11/06 11:45:12;;;;;;;9.55;2.50;;;13.50;99.90;;;;;;4879713;29;20063;-64
2022/11/06 11:47:41;;;;;;;8.50;3.17;;;13.50;99.90;;;;;;4878913;29;20484;-64
2022/11/06 11:50:18;;;;;;;16.80;6.57;;;13.50;99.90;;;;;;4862288;29;20049;-64
2022/11/06 11:52:46;;;;;;;11.52;2.80;;;13.50;99.90;;;;;;4862123;29;20049;-60
2022/11/06 11:55:18;;;;;;;10.10;2.75;;;13.40;99.90;;;;;;4831864;29;20509;-61
2022/11/06 11:57:47;;;;;;;7.75;2.92;;;13.40;99.90;;;;;;4847508;29;20045;-64
2022/11/06 12:00:18;;;;;;;10.88;3.15;;;13.40;99.90;;;;;;4833003;29;20052;-64
2022/11/06 12:02:46;;;;;;;8.20;2.47;;;13.40;99.90;;;;;;4847893;29;20052;-65
2022/11/06 12:05:20;;;;;;;8.98;2.65;;;13.40;99.90;;;;;;4865888;29;20052;-65
2022/11/06 12:07:49;;;;;;;11.80;2.60;;;13.50;99.90;;;;;;4866732;29;20049;-65
2022/11/06 12:10:25;;;;;;;;;;;13.50;99.90;;;;;;4866297;29;20477;-63
2022/11/06 12:12:52;;;;;;;15.07;5.15;;;13.50;99.90;;;;;;4882596;29;19920;-62
2022/11/06 12:15:39;;;;;;;11.32;3.10;;;13.40;99.90;;;;;;4876696;29;20089;-70
2022/11/06 12:18:10;;;;;;;8.27;3.15;;;13.40;99.90;;;;;;4900987;29;20485;-68
2022/11/06 12:20:57;;;;;;;22.58;13.98;;;13.40;99.90;;;;;;4884935;29;20044;-64
2022/11/06 12:23:31;;;;;;;13.48;5.70;;;13.40;99.90;;;;;;4884970;29;20426;-61
2022/11/06 12:26:36;;;;;;;10.30;3.78;;;13.40;99.90;;;;;;4884586;29;20113;-61
2022/11/06 12:29:10;;;;;;;11.30;3.10;;;13.40;99.90;;;;;;4900859;29;20536;-60
2022/11/06 12:32:00;;;;;;;10.18;3.35;;;13.40;99.90;;;;;;4885128;29;20049;-61
2022/11/06 12:34:53;;;;;;;13.18;3.00;;;13.40;99.90;;;;;;4888669;29;20041;-60
2022/11/06 12:37:38;;;;;;;15.75;4.15;;;13.40;99.90;;;;;;4886085;29;20056;-60
2022/11/06 12:40:21;;;;;;;9.45;3.63;;;13.40;99.90;;;;;;4869125;29;20094;-60
2022/11/06 12:43:12;;;;;;;11.75;4.25;;;13.40;99.90;;;;;;4884879;29;20437;-61
2022/11/06 12:46:08;;;;;;;15.80;3.63;;;13.40;99.90;;;;;;4900517;29;20100;-61
2022/11/06 12:49:01;;;;;;;12.07;4.00;;;13.40;99.90;;;;;;4845414;29;20044;-61
2022/11/06 12:51:34;;;;;;;10.80;3.90;;;13.40;99.90;;;;;;4886478;29;20392;-61
2022/11/06 12:54:12;;;;;;;12.43;3.80;;;13.40;99.90;;;;;;4900722;29;20048;-60
2022/11/06 12:56:55;;;;;;;10.35;3.25;;;13.40;99.90;;;;;;4901251;29;20045;-60
2022/11/06 13:00:05;;;;;;;12.93;3.75;;;13.50;99.90;;;;;;4870209;29;20104;-60
2022/11/06 13:02:44;;;;;;;20.17;9.45;;;13.50;99.90;;;;;;4840629;29;20389;-61
2022/11/06 13:05:31;;;;;;;12.25;5.07;;;13.50;99.90;;;;;;4899921;29;20048;-60
2022/11/06 13:08:19;;;;;;;12.63;3.45;;;13.60;99.90;;;;;;4898948;29;20068;-62
2022/11/06 13:10:58;;;;;;;19.60;10.48;;;13.60;99.90;;;;;;4883981;29;20052;-61
2022/11/06 13:13:36;;;;;;;29.40;16.75;;;13.70;99.90;;;;;;4883850;29;20087;-71
2022/11/06 13:16:12;;;;;;;14.68;3.75;;;13.80;99.90;;;;;;4882436;29;20056;-61
2022/11/06 13:18:44;;;;;;;9.32;3.28;;;13.80;99.90;;;;;;4899896;29;20056;-61
2022/11/06 13:21:30;;;;;;;13.93;3.53;;;13.80;99.90;;;;;;4885121;29;20131;-61
2022/11/06 13:24:35;;;;;;;13.75;5.53;;;13.80;99.90;;;;;;4899721;29;20048;-61